sensor_id;sensor_type;location;lat;lon;timestamp;temperature;humidity
8643;DHT22;4359;49.358;11.256;2023-04-12T00:01:33;2.00;99.90
8643;DHT22;4359;49.358;11.256;2023-04-12T00:03:59;1.90;99.90
8643;DHT22;4359;49.358;11.256;2023-04-12T00:06:27;1.90;99.90
8643;DHT22;4359;49.358;11.256;2023-04-12T00:09:02;2.00;99.90
8643;DHT22;4359;49.358;11.256;2023-04-12T00:11:30;2.00;99.90
8643;DHT22;4359;49.358;11.256;2023-04-12T00:13:55;2.00;99.90
8643;DHT22;4359;49.358;11.256;2023-04-12T00:16:21;2.00;99.90
8643;DHT22;4359;49.358;11.256;2023-04-12T00:18:46;2.10;99.90
8643;DHT22;4359;49.358;11.256;2023-04-12T00:21:13;2.20;99.90
8643;DHT22;4359;49.358;11.256;2023-04-12T00:23:42;2.20;99.90
8643;DHT22;4359;49.358;11.256;2023-04-12T00:26:09;2.30;99.90
8643;DHT22;4359;49.358;11.256;2023-04-12T00:28:34;2.30;99.90
8643;DHT22;4359;49.358;11.256;2023-04-12T00:31:00;2.30;99.90
8643;DHT22;4359;49.358;11.256;2023-04-12T00:33:25;2.30;99.90
8643;DHT22;4359;49.358;11.256;2023-04-12T00:35:51;2.40;99.90
8643;DHT22;4359;49.358;11.256;2023-04-12T00:38:17;2.50;99.90
8643;DHT22;4359;49.358;11.256;2023-04-12T00:40:43;2.50;99.90
8643;DHT22;4359;49.358;11.256;2023-04-12T00:43:09;2.50;99.90
8643;DHT22;4359;49.358;11.256;2023-04-12T00:45:39;2.40;99.90
8643;DHT22;4359;49.358;11.256;2023-04-12T00:48:05;2.30;99.90
8643;DHT22;4359;49.358;11.256;2023-04-12T00:50:33;2.30;99.90
8643;DHT22;4359;49.358;11.256;2023-04-12T00:52:58;2.30;99.90
8643;DHT22;4359;49.358;11.256;2023-04-12T00:55:24;2.30;99.90
8643;DHT22;4359;49.358;11.256;2023-04-12T00:57:49;2.40;99.90
8643;DHT22;4359;49.358;11.256;2023-04-12T01:00:16;2.40;99.90
8643;DHT22;4359;49.358;11.256;2023-04-12T01:02:42;2.40;99.90
8643;DHT22;4359;49.358;11.256;2023-04-12T01:05:15;2.40;99.90
8643;DHT22;4359;49.358;11.256;2023-04-12T01:13:25;2.60;99.90
8643;DHT22;4359;49.358;11.256;2023-04-12T01:15:57;2.60;99.90
8643;DHT22;4359;49.358;11.256;2023-04-12T01:18:24;2.70;99.90
8643;DHT22;4359;49.358;11.256;2023-04-12T01:20:50;2.60;99.90
8643;DHT22;4359;49.358;11.256;2023-04-12T01:23:42;2.60;99.90
8643;DHT22;4359;49.358;11.256;2023-04-12T01:28:57;2.70;99.90
8643;DHT22;4359;49.358;11.256;2023-04-12T01:31:23;2.70;99.90
8643;DHT22;4359;49.358;11.256;2023-04-12T01:33:50;2.70;99.90
8643;DHT22;4359;49.358;11.256;2023-04-12T01:36:17;2.70;99.90
8643;DHT22;4359;49.358;11.256;2023-04-12T01:38:43;2.70;99.90
8643;DHT22;4359;49.358;11.256;2023-04-12T01:41:09;2.80;99.90
8643;DHT22;4359;49.358;11.256;2023-04-12T01:43:44;2.80;99.90
8643;DHT22;4359;49.358;11.256;2023-04-12T01:46:15;2.80;99.90
8643;DHT22;4359;49.358;11.256;2023-04-12T01:48:52;2.80;99.90
8643;DHT22;4359;49.358;11.256;2023-04-12T01:51:26;2.80;99.90
8643;DHT22;4359;49.358;11.256;2023-04-12T01:53:56;2.80;99.90
8643;DHT22;4359;49.358;11.256;2023-04-12T01:56:22;2.80;99.90
8643;DHT22;4359;49.358;11.256;2023-04-12T01:58:49;2.80;99.90
8643;DHT22;4359;49.358;11.256;2023-04-12T02:01:16;2.80;99.90
8643;DHT22;4359;49.358;11.256;2023-04-12T02:03:43;2.80;99.90
8643;DHT22;4359;49.358;11.256;2023-04-12T02:06:09;2.80;99.90
8643;DHT22;4359;49.358;11.256;2023-04-12T02:08:35;2.90;99.90
8643;DHT22;4359;49.358;11.256;2023-04-12T02:11:08;2.90;99.90
8643;DHT22;4359;49.358;11.256;2023-04-12T02:13:34;3.00;99.90
8643;DHT22;4359;49.358;11.256;2023-04-12T02:15:59;3.00;99.90
8643;DHT22;4359;49.358;11.256;2023-04-12T02:18:26;2.90;99.90
8643;DHT22;4359;49.358;11.256;2023-04-12T02:20:53;2.90;99.90
8643;DHT22;4359;49.358;11.256;2023-04-12T02:23:18;2.90;99.90
8643;DHT22;4359;49.358;11.256;2023-04-12T02:25:44;2.90;99.90
8643;DHT22;4359;49.358;11.256;2023-04-12T02:28:11;2.90;99.90
8643;DHT22;4359;49.358;11.256;2023-04-12T02:30:36;2.90;99.90
8643;DHT22;4359;49.358;11.256;2023-04-12T02:33:02;3.00;99.90
8643;DHT22;4359;49.358;11.256;2023-04-12T02:35:30;3.00;99.90
8643;DHT22;4359;49.358;11.256;2023-04-12T02:37:56;3.00;99.90
8643;DHT22;4359;49.358;11.256;2023-04-12T02:40:22;3.10;99.90
8643;DHT22;4359;49.358;11.256;2023-04-12T02:42:47;3.20;99.90
8643;DHT22;4359;49.358;11.256;2023-04-12T02:45:13;3.20;99.90
8643;DHT22;4359;49.358;11.256;2023-04-12T02:47:39;3.30;99.90
8643;DHT22;4359;49.358;11.256;2023-04-12T02:50:06;3.20;99.90
8643;DHT22;4359;49.358;11.256;2023-04-12T02:52:31;3.20;99.90
8643;DHT22;4359;49.358;11.256;2023-04-12T02:54:57;3.20;99.90
8643;DHT22;4359;49.358;11.256;2023-04-12T02:57:23;3.20;99.90
8643;DHT22;4359;49.358;11.256;2023-04-12T02:59:52;3.20;99.90
8643;DHT22;4359;49.358;11.256;2023-04-12T03:02:18;3.10;99.90
8643;DHT22;4359;49.358;11.256;2023-04-12T03:04:44;3.10;99.90
8643;DHT22;4359;49.358;11.256;2023-04-12T03:07:15;3.20;99.90
8643;DHT22;4359;49.358;11.256;2023-04-12T03:09:40;3.10;99.90
8643;DHT22;4359;49.358;11.256;2023-04-12T03:12:07;3.10;99.90
8643;DHT22;4359;49.358;11.256;2023-04-12T03:14:32;3.10;99.90
8643;DHT22;4359;49.358;11.256;2023-04-12T03:16:58;3.20;99.90
8643;DHT22;4359;49.358;11.256;2023-04-12T03:19:23;3.30;99.90
8643;DHT22;4359;49.358;11.256;2023-04-12T03:21:48;3.30;99.90
8643;DHT22;4359;49.358;11.256;2023-04-12T03:24:14;3.40;99.90
8643;DHT22;4359;49.358;11.256;2023-04-12T03:26:40;3.40;99.90
8643;DHT22;4359;49.358;11.256;2023-04-12T03:29:06;3.40;99.90
8643;DHT22;4359;49.358;11.256;2023-04-12T03:31:35;3.40;99.90
8643;DHT22;4359;49.358;11.256;2023-04-12T03:34:01;3.40;99.90
8643;DHT22;4359;49.358;11.256;2023-04-12T03:36:26;3.50;99.90
8643;DHT22;4359;49.358;11.256;2023-04-12T03:38:52;3.50;99.90
8643;DHT22;4359;49.358;11.256;2023-04-12T03:41:20;3.50;99.90
8643;DHT22;4359;49.358;11.256;2023-04-12T03:43:45;3.60;99.90
8643;DHT22;4359;49.358;11.256;2023-04-12T03:46:11;3.70;99.90
8643;DHT22;4359;49.358;11.256;2023-04-12T03:48:38;3.70;99.90
8643;DHT22;4359;49.358;11.256;2023-04-12T03:51:03;3.80;99.90
8643;DHT22;4359;49.358;11.256;2023-04-12T03:53:33;3.90;99.90
8643;DHT22;4359;49.358;11.256;2023-04-12T03:55:58;3.80;99.90
8643;DHT22;4359;49.358;11.256;2023-04-12T03:58:24;3.80;99.90
8643;DHT22;4359;49.358;11.256;2023-04-12T04:00:49;3.80;99.90
8643;DHT22;4359;49.358;11.256;2023-04-12T04:03:15;3.80;99.90
8643;DHT22;4359;49.358;11.256;2023-04-12T04:05:41;3.80;99.90
8643;DHT22;4359;49.358;11.256;2023-04-12T04:08:06;3.90;99.90
8643;DHT22;4359;49.358;11.256;2023-04-12T04:10:33;3.90;99.90
8643;DHT22;4359;49.358;11.256;2023-04-12T04:12:58;3.90;99.90
8643;DHT22;4359;49.358;11.256;2023-04-12T04:15:24;3.80;99.90
8643;DHT22;4359;49.358;11.256;2023-04-12T04:17:49;3.90;99.90
8643;DHT22;4359;49.358;11.256;2023-04-12T04:20:15;3.90;99.90
8643;DHT22;4359;49.358;11.256;2023-04-12T04:22:42;3.90;99.90
8643;DHT22;4359;49.358;11.256;2023-04-12T04:25:09;4.00;99.90
8643;DHT22;4359;49.358;11.256;2023-04-12T04:27:35;4.00;99.90
8643;DHT22;4359;49.358;11.256;2023-04-12T04:30:03;4.00;99.90
8643;DHT22;4359;49.358;11.256;2023-04-12T04:32:29;4.10;99.90
8643;DHT22;4359;49.358;11.256;2023-04-12T04:34:56;4.10;99.90
8643;DHT22;4359;49.358;11.256;2023-04-12T04:37:27;4.20;99.90
8643;DHT22;4359;49.358;11.256;2023-04-12T04:39:53;4.20;99.90
8643;DHT22;4359;49.358;11.256;2023-04-12T04:42:19;4.20;99.90
8643;DHT22;4359;49.358;11.256;2023-04-12T04:44:46;4.20;99.90
8643;DHT22;4359;49.358;11.256;2023-04-12T04:47:12;4.20;99.90
8643;DHT22;4359;49.358;11.256;2023-04-12T04:49:38;4.30;99.90
8643;DHT22;4359;49.358;11.256;2023-04-12T04:52:03;4.30;99.90
8643;DHT22;4359;49.358;11.256;2023-04-12T04:54:29;4.50;99.90
8643;DHT22;4359;49.358;11.256;2023-04-12T04:56:57;4.60;99.90
8643;DHT22;4359;49.358;11.256;2023-04-12T04:59:23;4.70;99.90
8643;DHT22;4359;49.358;11.256;2023-04-12T05:01:49;4.80;99.90
8643;DHT22;4359;49.358;11.256;2023-04-12T05:04:16;4.90;99.90
8643;DHT22;4359;49.358;11.256;2023-04-12T05:06:41;4.90;99.90
8643;DHT22;4359;49.358;11.256;2023-04-12T05:09:07;5.00;99.90
8643;DHT22;4359;49.358;11.256;2023-04-12T05:11:32;5.20;99.90
8643;DHT22;4359;49.358;11.256;2023-04-12T05:13:58;5.30;99.90
8643;DHT22;4359;49.358;11.256;2023-04-12T05:16:23;5.40;99.90
8643;DHT22;4359;49.358;11.256;2023-04-12T05:21:42;5.60;99.90
8643;DHT22;4359;49.358;11.256;2023-04-12T05:24:08;5.70;99.90
8643;DHT22;4359;49.358;11.256;2023-04-12T05:26:33;5.80;99.90
8643;DHT22;4359;49.358;11.256;2023-04-12T05:28:59;5.80;99.90
8643;DHT22;4359;49.358;11.256;2023-04-12T05:31:26;5.90;99.90
8643;DHT22;4359;49.358;11.256;2023-04-12T05:33:53;6.00;99.90
8643;DHT22;4359;49.358;11.256;2023-04-12T05:36:21;6.00;99.90
8643;DHT22;4359;49.358;11.256;2023-04-12T05:38:46;6.00;99.90
8643;DHT22;4359;49.358;11.256;2023-04-12T05:41:12;5.90;99.90
8643;DHT22;4359;49.358;11.256;2023-04-12T05:43:38;6.00;99.90
8643;DHT22;4359;49.358;11.256;2023-04-12T05:46:04;6.00;99.90
8643;DHT22;4359;49.358;11.256;2023-04-12T05:48:32;6.10;99.90
8643;DHT22;4359;49.358;11.256;2023-04-12T05:50:57;6.10;99.90
8643;DHT22;4359;49.358;11.256;2023-04-12T05:53:23;6.10;99.90
8643;DHT22;4359;49.358;11.256;2023-04-12T05:55:49;6.20;99.90
8643;DHT22;4359;49.358;11.256;2023-04-12T05:58:16;6.20;99.90
8643;DHT22;4359;49.358;11.256;2023-04-12T06:00:41;6.20;99.90
8643;DHT22;4359;49.358;11.256;2023-04-12T06:03:10;6.20;99.90
8643;DHT22;4359;49.358;11.256;2023-04-12T06:05:36;6.30;99.90
8643;DHT22;4359;49.358;11.256;2023-04-12T06:08:02;6.30;99.90
8643;DHT22;4359;49.358;11.256;2023-04-12T06:10:30;6.40;99.90
8643;DHT22;4359;49.358;11.256;2023-04-12T06:12:56;6.50;99.90
8643;DHT22;4359;49.358;11.256;2023-04-12T06:15:21;6.60;99.90
8643;DHT22;4359;49.358;11.256;2023-04-12T06:17:47;6.70;99.90
8643;DHT22;4359;49.358;11.256;2023-04-12T06:20:15;6.70;99.90
8643;DHT22;4359;49.358;11.256;2023-04-12T06:22:40;6.70;99.90
8643;DHT22;4359;49.358;11.256;2023-04-12T06:25:06;6.70;99.90
8643;DHT22;4359;49.358;11.256;2023-04-12T06:27:32;6.70;99.90
8643;DHT22;4359;49.358;11.256;2023-04-12T06:29:58;6.70;99.90
8643;DHT22;4359;49.358;11.256;2023-04-12T06:32:24;6.80;99.90
8643;DHT22;4359;49.358;11.256;2023-04-12T06:34:50;6.80;99.90
8643;DHT22;4359;49.358;11.256;2023-04-12T06:37:15;6.80;99.90
8643;DHT22;4359;49.358;11.256;2023-04-12T06:39:41;6.90;99.90
8643;DHT22;4359;49.358;11.256;2023-04-12T06:42:07;6.90;99.90
8643;DHT22;4359;49.358;11.256;2023-04-12T06:44:32;6.90;99.90
8643;DHT22;4359;49.358;11.256;2023-04-12T06:46:58;6.90;99.90
8643;DHT22;4359;49.358;11.256;2023-04-12T06:49:24;6.90;99.90
8643;DHT22;4359;49.358;11.256;2023-04-12T06:51:50;7.00;99.90
8643;DHT22;4359;49.358;11.256;2023-04-12T06:54:16;7.00;99.90
8643;DHT22;4359;49.358;11.256;2023-04-12T06:56:41;7.00;99.90
8643;DHT22;4359;49.358;11.256;2023-04-12T06:59:07;7.10;99.90
8643;DHT22;4359;49.358;11.256;2023-04-12T07:01:33;7.00;99.90
8643;DHT22;4359;49.358;11.256;2023-04-12T07:03:59;7.00;99.90
8643;DHT22;4359;49.358;11.256;2023-04-12T07:06:26;7.20;99.90
8643;DHT22;4359;49.358;11.256;2023-04-12T07:08:51;7.30;99.90
8643;DHT22;4359;49.358;11.256;2023-04-12T07:11:17;7.20;99.90
8643;DHT22;4359;49.358;11.256;2023-04-12T07:13:43;7.30;99.90
8643;DHT22;4359;49.358;11.256;2023-04-12T07:16:09;7.40;99.90
8643;DHT22;4359;49.358;11.256;2023-04-12T07:18:34;7.50;99.90
8643;DHT22;4359;49.358;11.256;2023-04-12T07:21:00;7.50;99.90
8643;DHT22;4359;49.358;11.256;2023-04-12T07:23:26;7.60;99.90
8643;DHT22;4359;49.358;11.256;2023-04-12T07:25:52;7.60;99.90
8643;DHT22;4359;49.358;11.256;2023-04-12T07:30:49;7.60;99.90
8643;DHT22;4359;49.358;11.256;2023-04-12T07:33:15;7.60;99.90
8643;DHT22;4359;49.358;11.256;2023-04-12T07:35:40;7.50;99.90
8643;DHT22;4359;49.358;11.256;2023-04-12T07:38:06;7.30;99.90
8643;DHT22;4359;49.358;11.256;2023-04-12T07:40:32;7.30;99.90
8643;DHT22;4359;49.358;11.256;2023-04-12T07:42:58;7.30;99.90
8643;DHT22;4359;49.358;11.256;2023-04-12T07:45:23;7.30;99.90
8643;DHT22;4359;49.358;11.256;2023-04-12T07:47:49;7.20;99.90
8643;DHT22;4359;49.358;11.256;2023-04-12T07:50:15;7.30;99.90
8643;DHT22;4359;49.358;11.256;2023-04-12T07:52:41;7.30;99.90
8643;DHT22;4359;49.358;11.256;2023-04-12T07:55:07;7.30;99.90
8643;DHT22;4359;49.358;11.256;2023-04-12T07:57:33;7.40;99.90
8643;DHT22;4359;49.358;11.256;2023-04-12T07:59:59;7.50;99.90
8643;DHT22;4359;49.358;11.256;2023-04-12T08:02:24;7.50;99.90
8643;DHT22;4359;49.358;11.256;2023-04-12T08:04:51;7.50;99.90
8643;DHT22;4359;49.358;11.256;2023-04-12T08:07:17;7.50;99.90
8643;DHT22;4359;49.358;11.256;2023-04-12T08:09:43;7.50;99.90
8643;DHT22;4359;49.358;11.256;2023-04-12T08:12:08;7.60;99.90
8643;DHT22;4359;49.358;11.256;2023-04-12T08:14:34;7.80;99.90
8643;DHT22;4359;49.358;11.256;2023-04-12T08:17:00;7.90;99.90
8643;DHT22;4359;49.358;11.256;2023-04-12T08:19:25;8.10;99.90
8643;DHT22;4359;49.358;11.256;2023-04-12T08:21:51;8.10;99.90
8643;DHT22;4359;49.358;11.256;2023-04-12T08:24:17;8.20;99.90
8643;DHT22;4359;49.358;11.256;2023-04-12T08:26:44;8.50;99.90
8643;DHT22;4359;49.358;11.256;2023-04-12T08:29:10;8.70;99.90
8643;DHT22;4359;49.358;11.256;2023-04-12T08:31:36;8.80;99.90
8643;DHT22;4359;49.358;11.256;2023-04-12T08:34:02;8.90;99.90
8643;DHT22;4359;49.358;11.256;2023-04-12T08:36:28;8.90;99.90
8643;DHT22;4359;49.358;11.256;2023-04-12T08:38:57;8.90;99.90
8643;DHT22;4359;49.358;11.256;2023-04-12T08:41:24;9.10;99.90
8643;DHT22;4359;49.358;11.256;2023-04-12T08:43:50;9.20;99.90
8643;DHT22;4359;49.358;11.256;2023-04-12T08:46:17;9.10;99.90
8643;DHT22;4359;49.358;11.256;2023-04-12T08:48:47;8.90;99.90
8643;DHT22;4359;49.358;11.256;2023-04-12T08:51:18;8.70;99.90
8643;DHT22;4359;49.358;11.256;2023-04-12T08:53:44;8.70;99.90
8643;DHT22;4359;49.358;11.256;2023-04-12T08:56:11;8.80;99.90
8643;DHT22;4359;49.358;11.256;2023-04-12T08:58:45;8.80;99.90
8643;DHT22;4359;49.358;11.256;2023-04-12T09:01:14;8.80;99.90
8643;DHT22;4359;49.358;11.256;2023-04-12T09:03:41;8.90;99.90
8643;DHT22;4359;49.358;11.256;2023-04-12T09:06:08;8.80;99.90
8643;DHT22;4359;49.358;11.256;2023-04-12T09:08:34;8.80;99.90
8643;DHT22;4359;49.358;11.256;2023-04-12T09:11:00;8.80;99.90
8643;DHT22;4359;49.358;11.256;2023-04-12T09:13:33;8.80;99.90
8643;DHT22;4359;49.358;11.256;2023-04-12T09:15:59;8.80;99.90
8643;DHT22;4359;49.358;11.256;2023-04-12T09:18:25;8.70;99.90
8643;DHT22;4359;49.358;11.256;2023-04-12T09:21:05;8.80;99.90
8643;DHT22;4359;49.358;11.256;2023-04-12T09:23:32;8.50;99.90
8643;DHT22;4359;49.358;11.256;2023-04-12T09:26:00;8.30;99.90
8643;DHT22;4359;49.358;11.256;2023-04-12T09:28:27;8.30;99.90
8643;DHT22;4359;49.358;11.256;2023-04-12T09:30:55;8.30;99.90
8643;DHT22;4359;49.358;11.256;2023-04-12T09:33:42;8.30;99.90
8643;DHT22;4359;49.358;11.256;2023-04-12T09:36:08;8.30;99.90
8643;DHT22;4359;49.358;11.256;2023-04-12T09:38:37;8.30;99.90
8643;DHT22;4359;49.358;11.256;2023-04-12T09:41:18;8.30;99.90
8643;DHT22;4359;49.358;11.256;2023-04-12T09:43:44;8.40;99.90
8643;DHT22;4359;49.358;11.256;2023-04-12T09:46:10;8.40;99.90
8643;DHT22;4359;49.358;11.256;2023-04-12T09:48:38;8.40;99.90
8643;DHT22;4359;49.358;11.256;2023-04-12T09:51:05;8.40;99.90
8643;DHT22;4359;49.358;11.256;2023-04-12T09:53:33;8.40;99.90
8643;DHT22;4359;49.358;11.256;2023-04-12T09:56:02;8.40;99.90
8643;DHT22;4359;49.358;11.256;2023-04-12T09:58:28;8.40;99.90
8643;DHT22;4359;49.358;11.256;2023-04-12T10:00:55;8.40;99.90
8643;DHT22;4359;49.358;11.256;2023-04-12T10:03:24;8.50;99.90
8643;DHT22;4359;49.358;11.256;2023-04-12T10:05:50;8.70;99.90
8643;DHT22;4359;49.358;11.256;2023-04-12T10:08:16;8.80;99.90
8643;DHT22;4359;49.358;11.256;2023-04-12T10:10:43;8.70;99.90
8643;DHT22;4359;49.358;11.256;2023-04-12T10:13:11;8.60;99.90
8643;DHT22;4359;49.358;11.256;2023-04-12T10:15:38;8.50;99.90
8643;DHT22;4359;49.358;11.256;2023-04-12T10:18:05;8.60;99.90
8643;DHT22;4359;49.358;11.256;2023-04-12T10:20:31;8.60;99.90
8643;DHT22;4359;49.358;11.256;2023-04-12T10:22:57;8.60;99.90
8643;DHT22;4359;49.358;11.256;2023-04-12T10:25:25;8.70;99.90
8643;DHT22;4359;49.358;11.256;2023-04-12T10:27:54;8.80;99.90
8643;DHT22;4359;49.358;11.256;2023-04-12T10:30:30;9.00;99.90
8643;DHT22;4359;49.358;11.256;2023-04-12T10:35:29;9.00;99.90
8643;DHT22;4359;49.358;11.256;2023-04-12T10:38:04;8.90;99.90
8643;DHT22;4359;49.358;11.256;2023-04-12T10:40:31;8.80;99.90
8643;DHT22;4359;49.358;11.256;2023-04-12T10:45:48;9.00;99.90
8643;DHT22;4359;49.358;11.256;2023-04-12T10:48:36;9.00;99.90
8643;DHT22;4359;49.358;11.256;2023-04-12T10:53:48;9.20;99.90
8643;DHT22;4359;49.358;11.256;2023-04-12T10:58:57;9.80;99.90
8643;DHT22;4359;49.358;11.256;2023-04-12T11:01:23;10.10;99.90
8643;DHT22;4359;49.358;11.256;2023-04-12T11:04:09;10.50;99.90
8643;DHT22;4359;49.358;11.256;2023-04-12T11:06:53;10.90;99.90
8643;DHT22;4359;49.358;11.256;2023-04-12T11:11:50;10.40;99.90
8643;DHT22;4359;49.358;11.256;2023-04-12T11:14:16;10.10;99.90
8643;DHT22;4359;49.358;11.256;2023-04-12T11:17:22;10.10;99.90
8643;DHT22;4359;49.358;11.256;2023-04-12T11:19:58;10.10;99.90
8643;DHT22;4359;49.358;11.256;2023-04-12T11:22:26;10.40;99.90
8643;DHT22;4359;49.358;11.256;2023-04-12T11:24:54;10.50;99.90
8643;DHT22;4359;49.358;11.256;2023-04-12T11:27:21;10.40;99.90
8643;DHT22;4359;49.358;11.256;2023-04-12T11:30:06;10.40;99.90
8643;DHT22;4359;49.358;11.256;2023-04-12T11:32:32;10.20;99.90
8643;DHT22;4359;49.358;11.256;2023-04-12T11:34:59;10.20;99.90
8643;DHT22;4359;49.358;11.256;2023-04-12T11:37:25;10.10;99.90
8643;DHT22;4359;49.358;11.256;2023-04-12T11:39:52;10.00;99.90
8643;DHT22;4359;49.358;11.256;2023-04-12T11:42:23;10.10;99.90
8643;DHT22;4359;49.358;11.256;2023-04-12T11:44:49;10.10;99.90
8643;DHT22;4359;49.358;11.256;2023-04-12T11:47:21;10.10;99.90
8643;DHT22;4359;49.358;11.256;2023-04-12T11:49:48;10.30;99.90
8643;DHT22;4359;49.358;11.256;2023-04-12T11:52:16;10.30;99.90
8643;DHT22;4359;49.358;11.256;2023-04-12T11:54:48;10.30;99.90
8643;DHT22;4359;49.358;11.256;2023-04-12T11:57:18;10.30;99.90
8643;DHT22;4359;49.358;11.256;2023-04-12T11:59:47;10.10;99.90
8643;DHT22;4359;49.358;11.256;2023-04-12T12:02:15;10.00;99.90
8643;DHT22;4359;49.358;11.256;2023-04-12T12:04:44;10.00;99.90
8643;DHT22;4359;49.358;11.256;2023-04-12T12:07:12;10.00;99.90
8643;DHT22;4359;49.358;11.256;2023-04-12T12:09:39;10.10;99.90
8643;DHT22;4359;49.358;11.256;2023-04-12T12:12:06;10.30;99.90
8643;DHT22;4359;49.358;11.256;2023-04-12T12:14:33;10.20;99.90
8643;DHT22;4359;49.358;11.256;2023-04-12T12:17:00;10.10;99.90
8643;DHT22;4359;49.358;11.256;2023-04-12T12:19:39;9.90;99.90
8643;DHT22;4359;49.358;11.256;2023-04-12T12:22:19;9.80;99.90
8643;DHT22;4359;49.358;11.256;2023-04-12T12:24:56;9.80;99.90
8643;DHT22;4359;49.358;11.256;2023-04-12T12:27:29;9.80;99.90
8643;DHT22;4359;49.358;11.256;2023-04-12T12:29:59;9.80;99.90
8643;DHT22;4359;49.358;11.256;2023-04-12T12:32:37;9.70;99.90
8643;DHT22;4359;49.358;11.256;2023-04-12T12:35:09;9.60;99.90
8643;DHT22;4359;49.358;11.256;2023-04-12T12:37:35;9.80;99.90
8643;DHT22;4359;49.358;11.256;2023-04-12T12:40:07;9.90;99.90
8643;DHT22;4359;49.358;11.256;2023-04-12T12:42:54;10.10;99.90
8643;DHT22;4359;49.358;11.256;2023-04-12T12:45:21;10.30;99.90
8643;DHT22;4359;49.358;11.256;2023-04-12T12:47:59;10.50;99.90
8643;DHT22;4359;49.358;11.256;2023-04-12T12:50:28;10.60;99.90
8643;DHT22;4359;49.358;11.256;2023-04-12T12:52:55;10.70;99.90
8643;DHT22;4359;49.358;11.256;2023-04-12T12:55:22;10.50;99.90
8643;DHT22;4359;49.358;11.256;2023-04-12T12:57:50;10.60;99.90
8643;DHT22;4359;49.358;11.256;2023-04-12T13:00:17;10.60;99.90
8643;DHT22;4359;49.358;11.256;2023-04-12T13:02:43;10.60;99.90
8643;DHT22;4359;49.358;11.256;2023-04-12T13:05:10;10.60;99.90
8643;DHT22;4359;49.358;11.256;2023-04-12T13:07:36;10.60;99.90
8643;DHT22;4359;49.358;11.256;2023-04-12T13:10:03;10.70;99.90
8643;DHT22;4359;49.358;11.256;2023-04-12T13:12:29;10.60;99.90
8643;DHT22;4359;49.358;11.256;2023-04-12T13:14:55;10.50;99.90
8643;DHT22;4359;49.358;11.256;2023-04-12T13:17:21;10.50;99.90
8643;DHT22;4359;49.358;11.256;2023-04-12T13:19:47;10.50;99.90
8643;DHT22;4359;49.358;11.256;2023-04-12T13:22:14;10.60;99.90
8643;DHT22;4359;49.358;11.256;2023-04-12T13:24:41;10.60;99.90
8643;DHT22;4359;49.358;11.256;2023-04-12T13:27:07;10.80;99.90
8643;DHT22;4359;49.358;11.256;2023-04-12T13:32:02;11.10;99.90
8643;DHT22;4359;49.358;11.256;2023-04-12T13:34:27;11.00;99.90
8643;DHT22;4359;49.358;11.256;2023-04-12T13:36:53;10.90;99.90
8643;DHT22;4359;49.358;11.256;2023-04-12T13:39:19;10.80;99.90
8643;DHT22;4359;49.358;11.256;2023-04-12T13:41:45;10.80;99.90
8643;DHT22;4359;49.358;11.256;2023-04-12T13:44:11;11.00;99.90
8643;DHT22;4359;49.358;11.256;2023-04-12T13:46:37;11.00;99.90
8643;DHT22;4359;49.358;11.256;2023-04-12T13:49:02;11.20;99.90
8643;DHT22;4359;49.358;11.256;2023-04-12T13:51:28;11.20;99.90
8643;DHT22;4359;49.358;11.256;2023-04-12T13:53:54;11.20;99.90
8643;DHT22;4359;49.358;11.256;2023-04-12T13:56:20;11.30;99.90
8643;DHT22;4359;49.358;11.256;2023-04-12T13:58:46;11.50;99.90
8643;DHT22;4359;49.358;11.256;2023-04-12T14:01:12;11.60;99.90
8643;DHT22;4359;49.358;11.256;2023-04-12T14:03:38;11.70;99.90
8643;DHT22;4359;49.358;11.256;2023-04-12T14:06:05;11.70;99.90
8643;DHT22;4359;49.358;11.256;2023-04-12T14:08:32;11.70;99.90
8643;DHT22;4359;49.358;11.256;2023-04-12T14:10:58;11.80;99.90
8643;DHT22;4359;49.358;11.256;2023-04-12T14:13:25;11.70;99.90
8643;DHT22;4359;49.358;11.256;2023-04-12T14:15:51;11.60;99.90
8643;DHT22;4359;49.358;11.256;2023-04-12T14:18:18;11.50;99.90
8643;DHT22;4359;49.358;11.256;2023-04-12T14:20:44;11.50;99.90
8643;DHT22;4359;49.358;11.256;2023-04-12T14:23:13;11.70;99.90
8643;DHT22;4359;49.358;11.256;2023-04-12T14:25:39;11.80;99.90
8643;DHT22;4359;49.358;11.256;2023-04-12T14:28:05;11.80;99.90
8643;DHT22;4359;49.358;11.256;2023-04-12T14:30:31;11.80;99.90
8643;DHT22;4359;49.358;11.256;2023-04-12T14:32:57;11.80;99.90
8643;DHT22;4359;49.358;11.256;2023-04-12T14:35:22;11.90;99.90
8643;DHT22;4359;49.358;11.256;2023-04-12T14:37:48;12.10;99.90
8643;DHT22;4359;49.358;11.256;2023-04-12T14:40:14;12.20;99.90
8643;DHT22;4359;49.358;11.256;2023-04-12T14:42:39;12.30;99.90
8643;DHT22;4359;49.358;11.256;2023-04-12T14:45:06;12.20;99.90
8643;DHT22;4359;49.358;11.256;2023-04-12T14:47:33;12.10;99.90
8643;DHT22;4359;49.358;11.256;2023-04-12T14:50:00;12.10;99.90
8643;DHT22;4359;49.358;11.256;2023-04-12T14:52:26;12.10;99.90
8643;DHT22;4359;49.358;11.256;2023-04-12T14:54:52;12.00;99.90
8643;DHT22;4359;49.358;11.256;2023-04-12T14:57:18;12.10;99.90
8643;DHT22;4359;49.358;11.256;2023-04-12T14:59:43;12.30;99.90
8643;DHT22;4359;49.358;11.256;2023-04-12T15:02:09;12.80;99.90
8643;DHT22;4359;49.358;11.256;2023-04-12T15:04:35;13.10;99.90
8643;DHT22;4359;49.358;11.256;2023-04-12T15:07:01;13.20;99.90
8643;DHT22;4359;49.358;11.256;2023-04-12T15:09:26;13.20;99.90
8643;DHT22;4359;49.358;11.256;2023-04-12T15:11:53;13.10;99.90
8643;DHT22;4359;49.358;11.256;2023-04-12T15:14:26;13.20;99.90
8643;DHT22;4359;49.358;11.256;2023-04-12T15:16:52;13.20;99.90
8643;DHT22;4359;49.358;11.256;2023-04-12T15:19:19;13.10;99.90
8643;DHT22;4359;49.358;11.256;2023-04-12T15:21:47;13.00;99.90
8643;DHT22;4359;49.358;11.256;2023-04-12T15:24:16;13.00;99.90
8643;DHT22;4359;49.358;11.256;2023-04-12T15:26:42;13.00;99.90
8643;DHT22;4359;49.358;11.256;2023-04-12T15:29:09;12.80;99.90
8643;DHT22;4359;49.358;11.256;2023-04-12T15:31:34;12.80;99.90
8643;DHT22;4359;49.358;11.256;2023-04-12T15:34:00;12.80;99.90
8643;DHT22;4359;49.358;11.256;2023-04-12T15:36:26;12.70;99.90
8643;DHT22;4359;49.358;11.256;2023-04-12T15:38:58;12.80;99.90
8643;DHT22;4359;49.358;11.256;2023-04-12T15:41:24;12.80;99.90
8643;DHT22;4359;49.358;11.256;2023-04-12T15:43:50;12.80;99.90
8643;DHT22;4359;49.358;11.256;2023-04-12T15:46:16;12.80;99.90
8643;DHT22;4359;49.358;11.256;2023-04-12T15:48:42;12.90;99.90
8643;DHT22;4359;49.358;11.256;2023-04-12T15:51:07;12.80;99.90
8643;DHT22;4359;49.358;11.256;2023-04-12T15:53:33;12.70;99.90
8643;DHT22;4359;49.358;11.256;2023-04-12T15:55:59;12.60;99.90
8643;DHT22;4359;49.358;11.256;2023-04-12T15:58:25;12.60;99.90
8643;DHT22;4359;49.358;11.256;2023-04-12T16:00:53;12.50;99.90
8643;DHT22;4359;49.358;11.256;2023-04-12T16:03:20;12.50;99.90
8643;DHT22;4359;49.358;11.256;2023-04-12T16:05:48;12.40;99.90
8643;DHT22;4359;49.358;11.256;2023-04-12T16:08:20;12.30;99.90
8643;DHT22;4359;49.358;11.256;2023-04-12T16:10:46;12.30;99.90
8643;DHT22;4359;49.358;11.256;2023-04-12T16:13:12;12.60;99.90
8643;DHT22;4359;49.358;11.256;2023-04-12T16:15:38;12.80;99.90
8643;DHT22;4359;49.358;11.256;2023-04-12T16:18:04;12.90;99.90
8643;DHT22;4359;49.358;11.256;2023-04-12T16:20:29;13.10;99.90
8643;DHT22;4359;49.358;11.256;2023-04-12T16:22:56;13.20;99.90
8643;DHT22;4359;49.358;11.256;2023-04-12T16:25:24;13.10;99.90
8643;DHT22;4359;49.358;11.256;2023-04-12T16:27:50;13.00;99.90